Time;durP1;ratioP1;P1;durP2;ratioP2;P2;SDS_P1;SDS_P2;PMS_P1;PMS_P2;Temp;Humidity;BMP_temperature;BMP_pressure;BME280_temperature;BME280_humidity;BME280_pressure;Samples;Min_cycle;Max_cycle;Signal;HPM_P1;HPM_P2
2021/09/02 00:00:34;;;;;;;18.23;6.47;;;;;;;11.31;100.00;129977.22;5031207;28;20025;-68
2021/09/02 00:03:00;;;;;;;21.50;6.70;;;;;;;11.28;100.00;130984.34;5036227;28;20458;-68
2021/09/02 00:05:25;;;;;;;21.83;6.87;;;;;;;11.40;100.00;133378.72;5032794;28;20029;-68
2021/09/02 00:07:51;;;;;;;17.27;5.80;;;;;;;11.29;100.00;132000.75;5030159;28;20029;-67
2021/09/02 00:10:17;;;;;;;11.33;4.10;;;;;;;11.26;100.00;131655.81;5032863;28;20029;-67
2021/09/02 00:12:43;;;;;;;14.87;5.10;;;;;;;11.29;100.00;131324.63;5027387;28;20057;-67
2021/09/02 00:15:09;;;;;;;12.00;4.87;;;;;;;11.19;100.00;130289.28;5035777;28;20025;-68
2021/09/02 00:17:35;;;;;;;13.00;5.23;;;;;;;11.08;100.00;128575.88;5031298;28;20056;-67
2021/09/02 00:20:00;;;;;;;14.80;5.03;;;;;;;10.96;100.00;127200.25;5031842;28;20056;-68
2021/09/02 00:22:27;;;;;;;16.30;5.63;;;;;;;10.91;100.00;126851.88;5026479;28;20278;-68
2021/09/02 00:24:53;;;;;;;14.40;6.00;;;;;;;10.93;100.00;128543.69;5032365;28;20025;-67
2021/09/02 00:27:18;;;;;;;16.93;6.00;;;;;;;11.05;100.00;131948.34;5034698;28;20037;-67
2021/09/02 00:29:44;;;;;;;16.13;6.30;;;;;;;11.04;100.00;134649.63;5037406;28;20056;-67
2021/09/02 00:32:10;;;;;;;14.30;5.70;;;;;;;11.00;100.00;134979.66;5031071;28;20288;-67
2021/09/02 00:34:36;;;;;;;15.33;5.47;;;;;;;10.99;100.00;134977.34;5032468;28;20056;-67
2021/09/02 00:37:01;;;;;;;20.63;6.13;;;;;;;11.00;100.00;135655.00;5030925;28;20256;-68
2021/09/02 00:39:27;;;;;;;17.57;5.83;;;;;;;10.96;100.00;135646.84;5037248;28;20029;-67
2021/09/02 00:41:52;;;;;;;14.47;5.63;;;;;;;10.97;100.00;135310.91;5038702;28;20028;-67
2021/09/02 00:44:44;;;;;;;14.03;5.70;;;;;;;10.93;100.00;134963.41;5030422;28;20444;-67
2021/09/02 00:47:14;;;;;;;19.75;5.85;;;;;;;10.82;100.00;133923.56;5033433;28;20044;-67
2021/09/02 00:49:40;;;;;;;15.43;5.30;;;;;;;10.84;100.00;132914.19;5030300;28;20263;-67
2021/09/02 00:52:15;;;;;;;18.13;5.80;;;;;;;10.86;100.00;133256.75;5037196;28;20485;-67
2021/09/02 00:54:43;;;;;;;16.40;6.43;;;;;;;10.88;100.00;133261.34;5031231;28;20710;-68
2021/09/02 00:57:13;;;;;;;18.53;6.40;;;;;;;10.87;100.00;132583.13;5022465;28;20429;-67
2021/09/02 00:59:39;;;;;;;16.27;5.70;;;;;;;10.77;100.00;132222.41;5030400;28;20213;-67
2021/09/02 01:02:05;;;;;;;17.97;5.83;;;;;;;10.83;100.00;131898.25;5029138;28;20441;-71
2021/09/02 01:04:31;;;;;;;18.17;6.20;;;;;;;10.95;100.00;134628.69;5036243;23;20056;-66
2021/09/02 01:06:57;;;;;;;20.57;6.73;;;;;;;10.91;100.00;135973.41;5036092;28;20044;-66
2021/09/02 01:09:27;;;;;;;19.03;6.83;;;;;;;10.86;100.00;135285.22;5030743;28;20527;-66
2021/09/02 01:11:54;;;;;;;24.30;7.17;;;;;;;10.84;100.00;135281.72;5034749;28;20294;-66
2021/09/02 01:14:20;;;;;;;20.50;6.87;;;;;;;10.92;100.00;135299.25;5026315;28;20112;-66
2021/09/02 01:16:50;;;;;;;19.63;6.40;;;;;;;10.82;100.00;134937.78;5038819;28;20036;-67
2021/09/02 01:19:20;;;;;;;13.97;5.37;;;;;;;10.71;100.00;133899.28;5038931;28;20028;-66
2021/09/02 01:21:47;;;;;;;17.43;5.60;;;;;;;10.67;100.00;132537.41;5037694;28;20041;-66
2021/09/02 01:24:12;;;;;;;16.70;5.47;;;;;;;10.64;100.00;131854.97;5038281;28;20032;-66
2021/09/02 01:26:38;;;;;;;16.10;6.10;;;;;;;10.66;100.00;131859.53;5038346;28;20079;-66
2021/09/02 01:29:03;;;;;;;14.77;5.77;;;;;;;10.59;100.00;131505.94;5038413;28;20067;-66
2021/09/02 01:31:29;;;;;;;16.23;4.93;;;;;;;10.54;100.00;131159.25;5037863;28;20531;-66
2021/09/02 01:33:55;;;;;;;16.57;5.63;;;;;;;10.52;100.00;130817.09;5031811;28;20246;-66
2021/09/02 01:36:20;;;;;;;18.87;6.23;;;;;;;10.59;100.00;132181.34;5038653;28;20033;-66
2021/09/02 01:38:46;;;;;;;21.07;6.40;;;;;;;10.61;100.00;133199.25;5038043;28;20044;-66
2021/09/02 01:41:11;;;;;;;25.70;7.10;;;;;;;10.59;100.00;133870.38;5036340;28;20033;-66
2021/09/02 01:43:40;;;;;;;25.87;7.10;;;;;;;10.73;100.00;135254.88;5038175;28;20090;-66
2021/09/02 01:46:06;;;;;;;19.83;7.07;;;;;;;10.67;100.00;135917.09;5027646;28;20112;-66
2021/09/02 01:48:36;;;;;;;18.60;6.20;;;;;;;10.50;100.00;133512.91;5034933;28;20120;-66
2021/09/02 01:51:02;;;;;;;18.23;6.00;;;;;;;10.49;100.00;132159.66;5038276;28;20309;-66
2021/09/02 01:53:28;;;;;;;19.17;5.80;;;;;;;10.47;100.00;131817.44;5037672;28;20497;-66
2021/09/02 01:55:53;;;;;;;20.60;6.33;;;;;;;10.41;100.00;131467.31;5034804;28;20099;-67
2021/09/02 01:58:19;;;;;;;17.90;5.70;;;;;;;10.38;100.00;131123.00;5036801;28;20409;-66
2021/09/02 02:00:45;;;;;;;18.47;5.77;;;;;;;10.33;100.00;131110.56;5035460;28;20282;-66
2021/09/02 02:03:11;;;;;;;18.73;5.73;;;;;;;10.33;100.00;131111.69;5036954;28;20501;-66
2021/09/02 02:05:37;;;;;;;15.93;5.43;;;;;;;10.34;100.00;131451.44;5013520;28;20134;-66
2021/09/02 02:08:03;;;;;;;20.00;6.00;;;;;;;10.41;100.00;132817.84;5016779;28;20421;-66
2021/09/02 02:10:31;;;;;;;18.07;6.10;;;;;;;10.54;100.00;133861.16;5016151;28;20083;-66
2021/09/02 02:12:59;;;;;;;20.57;6.37;;;;;;;10.57;100.00;134881.88;5011731;28;20056;-66
2021/09/02 02:15:26;;;;;;;19.63;6.00;;;;;;;10.52;100.00;134870.22;5021061;28;20037;-66
2021/09/02 02:17:51;;;;;;;17.27;5.83;;;;;;;10.46;100.00;134518.38;5022071;28;20037;-66
2021/09/02 02:20:17;;;;;;;9.57;4.33;;;;;;;10.36;100.00;133480.63;5022531;28;20029;-66
2021/09/02 02:22:43;;;;;;;12.70;4.27;;;;;;;10.31;100.00;132794.94;5022499;28;20235;-68
2021/09/02 02:25:11;;;;;;;18.13;5.73;;;;;;;10.32;100.00;134148.06;5020254;28;20106;-68
2021/09/02 02:27:37;;;;;;;22.77;6.17;;;;;;;10.36;100.00;135170.84;5011850;28;20067;-68
2021/09/02 02:30:07;;;;;;;20.40;6.07;;;;;;;10.40;100.00;132814.41;5014709;28;20281;-68
2021/09/02 02:32:33;;;;;;;15.33;5.17;;;;;;;10.30;100.00;133468.00;5021176;28;20516;-68
2021/09/02 02:34:58;;;;;;;13.07;4.70;;;;;;;10.24;100.00;132442.44;5020308;28;20048;-66
2021/09/02 02:37:24;;;;;;;18.60;5.90;;;;;;;10.20;100.00;130408.56;5020561;28;20032;-66
2021/09/02 02:39:49;;;;;;;19.87;6.50;;;;;;;10.23;100.00;131427.63;5020808;28;20056;-66
2021/09/02 02:42:15;;;;;;;23.93;6.87;;;;;;;10.33;100.00;131785.59;5020859;28;20591;-66
2021/09/02 02:44:41;;;;;;;26.83;6.40;;;;;;;10.43;100.00;133160.19;5019915;28;21347;-66
2021/09/02 02:47:08;;;;;;;20.17;6.60;;;;;;;10.38;100.00;133148.66;5021668;28;20492;-66
2021/09/02 02:49:34;;;;;;;26.70;7.20;;;;;;;10.29;100.00;133127.97;5019889;28;20029;-66
2021/09/02 02:52:00;;;;;;;17.97;6.13;;;;;;;10.19;100.00;132430.97;5023316;28;20025;-68
2021/09/02 02:54:25;;;;;;;17.67;5.23;;;;;;;10.10;100.00;131059.56;5021229;28;20529;-68
2021/09/02 02:56:51;;;;;;;18.03;5.20;;;;;;;10.08;100.00;131392.41;5021559;28;20382;-68
2021/09/02 02:59:16;;;;;;;20.67;5.80;;;;;;;10.04;100.00;130708.66;5020522;28;20237;-68
2021/09/02 03:01:42;;;;;;;22.20;6.13;;;;;;;10.08;100.00;131392.41;5018271;28;20022;-68
2021/09/02 03:04:07;;;;;;;18.47;5.97;;;;;;;10.05;100.00;133073.91;5019897;28;20060;-68
2021/09/02 03:06:33;;;;;;;25.63;6.47;;;;;;;9.98;100.00;132046.69;5021037;28;20025;-68
2021/09/02 03:09:01;;;;;;;20.33;6.37;;;;;;;10.00;100.00;131712.72;5020355;28;20033;-68
2021/09/02 03:11:27;;;;;;;19.93;6.43;;;;;;;10.01;100.00;132051.22;5019000;28;20025;-68
2021/09/02 03:13:53;;;;;;;17.37;5.33;;;;;;;9.99;100.00;132048.97;5016016;28;20171;-68
2021/09/02 03:16:18;;;;;;;21.03;5.83;;;;;;;9.96;100.00;131367.44;5015969;28;20021;-68
2021/09/02 03:18:44;;;;;;;18.50;6.37;;;;;;;9.97;100.00;131368.56;5020251;28;20045;-68
2021/09/02 03:21:09;;;;;;;23.03;6.40;;;;;;;9.93;100.00;132035.28;5008987;28;20026;-67
2021/09/02 03:23:35;;;;;;;30.20;6.47;;;;;;;9.92;100.00;132369.19;5011792;28;20029;-68
2021/09/02 03:26:00;;;;;;;17.47;6.23;;;;;;;9.92;100.00;133382.66;5009718;28;20489;-68
2021/09/02 03:28:26;;;;;;;14.83;5.47;;;;;;;9.87;100.00;132358.94;5021452;28;20022;-67
2021/09/02 03:30:51;;;;;;;18.03;5.80;;;;;;;9.86;100.00;132356.63;5020677;28;20064;-68
2021/09/02 03:33:17;;;;;;;17.43;4.80;;;;;;;9.70;100.00;130634.19;5019750;28;20025;-68
2021/09/02 03:35:43;;;;;;;12.63;4.83;;;;;;;9.67;100.00;127931.75;5013573;28;20127;-68
2021/09/02 03:38:09;;;;;;;14.73;5.00;;;;;;;9.66;100.00;126919.25;5018565;28;20033;-67
2021/09/02 03:40:34;;;;;;;12.87;5.30;;;;;;;9.62;100.00;126910.47;5016887;28;20021;-68
2021/09/02 03:43:00;;;;;;;13.50;5.30;;;;;;;9.59;100.00;126230.63;5015252;28;20045;-67
2021/09/02 03:45:25;;;;;;;18.53;5.17;;;;;;;9.62;100.00;127247.19;5018818;28;20042;-67
2021/09/02 03:47:51;;;;;;;15.53;5.17;;;;;;;9.60;100.00;128589.94;5020761;28;20044;-68
2021/09/02 03:50:18;;;;;;;19.00;5.50;;;;;;;9.59;100.00;129261.47;5019716;28;20494;-68
2021/09/02 03:52:44;;;;;;;16.70;5.43;;;;;;;9.62;100.00;132639.00;5019410;28;20247;-68
2021/09/02 03:55:11;;;;;;;21.37;6.20;;;;;;;9.57;100.00;133639.31;5015739;28;20083;-68
2021/09/02 03:57:36;;;;;;;22.03;6.80;;;;;;;9.63;100.00;134666.53;5019859;28;20501;-67
2021/09/02 04:00:05;;;;;;;20.50;6.10;;;;;;;9.73;100.00;135026.16;5021434;28;20090;-68
2021/09/02 04:02:31;;;;;;;24.23;6.17;;;;;;;9.79;100.00;135715.34;5020271;28;20201;-68
2021/09/02 04:04:56;;;;;;;21.70;6.97;;;;;;;9.81;100.00;136056.50;5019917;28;20132;-68
2021/09/02 04:07:22;;;;;;;23.53;6.70;;;;;;;9.83;100.00;136062.41;5021198;28;20037;-68
2021/09/02 04:09:47;;;;;;;31.60;8.17;;;;;;;9.94;100.00;136763.84;5020558;28;20044;-68
2021/09/02 04:12:13;;;;;;;28.70;7.97;;;;;;;10.07;100.00;137468.00;5021833;28;20041;-68
2021/09/02 04:14:38;;;;;;;29.93;8.07;;;;;;;10.03;100.00;137458.47;5019841;28;20095;-67
2021/09/02 04:17:05;;;;;;;65.30;9.17;;;;;;;10.02;100.00;137456.13;5018110;28;20029;-68
2021/09/02 04:19:30;;;;;;;37.77;8.60;;;;;;;10.05;100.00;137801.19;5018470;28;20041;-68
2021/09/02 04:21:56;;;;;;;42.33;8.90;;;;;;;10.11;100.00;138153.50;5020235;28;20025;-68
2021/09/02 04:24:21;;;;;;;46.70;9.50;;;;;;;10.04;100.00;137460.84;5017517;28;20041;-68
2021/09/02 04:26:47;;;;;;;25.40;7.70;;;;;;;9.82;100.00;136060.06;5020332;28;20390;-68
2021/09/02 04:29:12;;;;;;;24.77;6.00;;;;;;;9.66;100.00;133661.25;5019879;28;20466;-68
2021/09/02 04:31:38;;;;;;;31.13;6.47;;;;;;;9.58;100.00;132292.66;5016363;28;20032;-68
2021/09/02 04:34:04;;;;;;;27.50;6.93;;;;;;;9.67;100.00;132313.19;5013755;28;20037;-68
2021/09/02 04:36:29;;;;;;;35.33;8.43;;;;;;;9.80;100.00;134366.22;5014171;28;20033;-68
2021/09/02 04:38:55;;;;;;;47.70;8.80;;;;;;;9.98;100.00;136096.47;5016515;28;20040;-68
2021/09/02 04:41:20;;;;;;;39.67;8.77;;;;;;;10.08;100.00;136794.53;5019506;28;20048;-68
2021/09/02 04:43:46;;;;;;;28.87;7.63;;;;;;;10.06;100.00;137128.91;5020319;28;20288;-68
2021/09/02 04:46:11;;;;;;;21.10;6.57;;;;;;;9.90;100.00;135403.44;5019112;28;20377;-67
2021/09/02 04:48:37;;;;;;;29.83;7.23;;;;;;;9.80;100.00;133692.44;5016029;28;20026;-68
2021/09/02 04:51:03;;;;;;;29.67;8.23;;;;;;;9.88;100.00;134047.28;5017390;28;20194;-68
2021/09/02 04:53:28;;;;;;;29.27;8.30;;;;;;;9.90;100.00;133715.53;5017839;28;20034;-68
2021/09/02 04:55:54;;;;;;;33.57;8.63;;;;;;;10.03;100.00;134756.09;5003448;28;20072;-68
2021/09/02 04:58:19;;;;;;;28.03;7.53;;;;;;;10.05;100.00;134423.09;5013347;28;20120;-68
2021/09/02 05:00:45;;;;;;;21.70;6.33;;;;;;;10.01;100.00;133063.56;5018860;28;20190;-68
2021/09/02 05:03:10;;;;;;;15.70;5.73;;;;;;;10.01;100.00;132052.38;5017571;28;20018;-68
2021/09/02 05:05:36;;;;;;;17.40;5.90;;;;;;;10.07;100.00;132402.41;5015991;28;20069;-68
2021/09/02 05:08:02;;;;;;;17.87;6.00;;;;;;;10.17;100.00;133101.47;5007720;28;20168;-68
2021/09/02 05:10:28;;;;;;;28.97;8.20;;;;;;;10.28;100.00;133463.34;5014552;28;20219;-68
2021/09/02 05:12:53;;;;;;;27.27;7.97;;;;;;;10.43;100.00;135187.22;5018911;28;20029;-68
2021/09/02 05:15:20;;;;;;;27.20;8.87;;;;;;;10.57;100.00;136232.88;5017102;28;20432;-68
2021/09/02 05:17:46;;;;;;;26.07;7.97;;;;;;;10.46;100.00;136208.19;5016675;28;20495;-68
2021/09/02 05:20:13;;;;;;;21.83;7.20;;;;;;;10.61;100.00;136917.44;5017300;28;20037;-68
2021/09/02 05:22:38;;;;;;;27.30;7.53;;;;;;;10.67;100.00;136931.63;5013001;28;20274;-68
2021/09/02 05:25:05;;;;;;;26.13;6.80;;;;;;;10.67;100.00;136255.25;5016295;28;20112;-68
2021/09/02 05:27:30;;;;;;;17.50;6.70;;;;;;;10.53;100.00;134534.59;5018739;28;20068;-68
2021/09/02 05:29:56;;;;;;;15.70;6.23;;;;;;;10.48;100.00;130133.06;5014887;28;20409;-68
2021/09/02 05:32:21;;;;;;;14.33;5.63;;;;;;;10.61;100.00;130160.03;4998955;28;20466;-68
2021/09/02 05:34:47;;;;;;;15.77;5.63;;;;;;;10.53;100.00;123062.66;5017275;28;20409;-69
2021/09/02 05:37:12;;;;;;;13.87;5.90;;;;;;;10.77;100.00;124123.66;5004929;28;20104;-68
2021/09/02 05:39:38;;;;;;;14.57;5.67;;;;;;;10.66;100.00;122415.47;5017593;28;20108;-68
2021/09/02 05:42:04;;;;;;;15.07;5.57;;;;;;;10.78;100.00;122440.84;5018829;28;20301;-68
2021/09/02 05:44:33;;;;;;;12.00;5.23;;;;;;;10.81;100.00;120763.03;5016808;28;20033;-68
2021/09/02 05:46:58;;;;;;;16.87;7.93;;;;;;;11.04;100.00;121483.81;5001875;28;20382;-68
2021/09/02 05:49:24;;;;;;;13.97;5.70;;;;;;;11.08;100.00;119135.16;5017963;28;20290;-68
2021/09/02 05:51:50;;;;;;;13.23;5.50;;;;;;;11.41;100.00;118190.38;5018842;28;20021;-68
2021/09/02 05:54:15;;;;;;;11.03;5.07;;;;;;;11.79;100.00;115233.72;5016710;28;20041;-68
2021/09/02 05:56:41;;;;;;;13.27;5.00;;;;;;;12.27;100.00;107585.91;5008402;28;20025;-69
2021/09/02 05:59:06;;;;;;;11.37;4.90;;;;;;;12.33;100.00;96180.53;5016945;28;20045;-69
2021/09/02 06:01:32;;;;;;;14.57;4.47;;;;;;;12.74;100.00;92894.22;4998856;28;20184;-69
2021/09/02 06:03:57;;;;;;;11.77;4.13;;;;;;;12.99;100.00;84562.00;4999880;28;20053;-69
2021/09/02 06:06:23;;;;;;;11.07;4.77;;;;;;;13.05;100.00;79890.34;4999272;28;20034;-68
2021/09/02 06:08:48;;;;;;;15.00;4.43;;;;;;;13.45;100.00;75603.31;5000667;28;20029;-68
2021/09/02 06:11:14;;;;;;;8.77;4.07;;;;;;;13.18;100.00;58259.78;5018554;28;20112;-68
2021/09/02 06:13:39;;;;;;;9.50;4.40;;;;;;;13.75;100.00;56988.28;5005718;28;20037;-68
2021/09/02 06:16:05;;;;;;;11.00;4.30;;;;;;;14.01;100.00;41430.97;5007714;28;20041;-68
2021/09/02 06:18:31;;;;;;;10.77;4.30;;;;;;;14.33;100.00;21983.63;5018724;28;20243;-69
2021/09/02 06:20:56;;;;;;;7.97;3.50;;;;;;;14.54;100.00;-4562.56;5011329;28;20048;-69
2021/09/02 06:23:22;;;;;;;10.40;3.73;;;;;;;15.11;100.00;-19318.63;4999320;28;20022;-70
2021/09/02 06:25:47;;;;;;;9.27;3.57;;;;;;;15.50;100.00;-19569.50;5009674;28;20306;-70
2021/09/02 06:28:13;;;;;;;7.63;3.80;;;;;;;16.36;100.00;-19591.63;5009581;28;20030;-70
2021/09/02 06:30:39;;;;;;;8.73;3.50;;;;;;;16.53;100.00;-19595.91;5017096;28;20191;-70
2021/09/02 06:33:05;;;;;;;7.10;3.23;;;;;;;17.01;100.00;-19608.06;5018755;28;20194;-70
2021/09/02 06:35:31;;;;;;;7.63;3.60;;;;;;;17.42;100.00;-19618.78;5000705;28;20553;-70
2021/09/02 06:37:56;;;;;;;8.67;3.60;;;;;;;17.56;100.00;-19622.28;5015047;28;20036;-71
2021/09/02 06:40:22;;;;;;;8.77;3.33;;;;;;;18.04;100.00;-19634.56;5014706;28;20076;-71
2021/09/02 06:42:47;;;;;;;8.13;3.35;;;;;;;17.53;100.00;-19621.66;4998726;28;20026;-73
2021/09/02 06:45:13;;;;;;;7.90;3.22;;;;;;;17.91;100.00;-19631.16;5011075;28;20509;-73
2021/09/02 06:47:39;;;;;;;8.13;3.45;;;;;;;18.19;100.00;-19638.34;5005630;28;20319;-73
2021/09/02 06:50:09;;;;;;;6.97;3.17;;;;;;;18.33;100.00;-19642.00;5012404;28;20176;-73
2021/09/02 06:52:35;;;;;;;6.95;3.20;;;;;;;18.93;100.00;-19657.50;5016551;28;20026;-73
2021/09/02 06:55:01;;;;;;;8.10;3.55;;;;;;;19.07;100.00;-19661.00;5011611;28;20030;-73
2021/09/02 06:57:26;;;;;;;12.20;3.70;;;;;;;19.10;100.00;-19661.78;5000024;28;20494;-71
2021/09/02 06:59:54;;;;;;;9.82;3.60;;;;;;;19.43;100.00;-19670.25;5014890;28;20038;-71
2021/09/02 07:02:23;;;;;;;7.35;3.83;;;;;;;20.21;100.00;-19690.16;5020785;28;20543;-71
2021/09/02 07:04:48;;;;;;;9.15;3.90;;;;;;;19.67;100.00;-19676.38;5021252;28;20397;-72
2021/09/02 07:07:14;;;;;;;7.40;3.22;;;;;;;20.11;100.00;-19687.69;5014518;28;20102;-71
2021/09/02 07:09:39;;;;;;;10.27;3.40;;;;;;;20.02;100.00;-19685.34;5021262;28;20030;-72
2021/09/02 07:12:05;;;;;;;8.27;3.13;;;;;;;19.99;100.00;-19684.44;5009322;28;20018;-72
2021/09/02 07:14:31;;;;;;;8.88;3.47;;;;;;;20.87;100.00;-19706.94;5003559;28;20442;-72
2021/09/02 07:16:57;;;;;;;5.68;2.88;;;;;;;19.64;100.00;-19675.59;5002368;28;20034;-72
2021/09/02 07:19:23;;;;;;;7.00;3.30;;;;;;;20.37;100.00;-19694.19;5002934;28;20453;-71
2021/09/02 07:21:48;;;;;;;9.13;3.38;;;;;;;22.04;100.00;-19736.91;5021776;28;20037;-71
2021/09/02 07:24:15;;;;;;;6.90;2.65;;;;;;;20.52;100.00;-19697.97;5019680;28;20045;-71
2021/09/02 07:26:40;;;;;;;6.45;2.50;;;;;;;21.23;100.00;-19716.16;5021350;28;20064;-70
2021/09/02 07:29:07;;;;;;;6.45;2.83;;;;;;;20.62;100.00;-19700.56;5009390;28;20510;-71
2021/09/02 07:31:34;;;;;;;5.60;2.72;;;;;;;21.17;100.00;-19714.59;5021228;28;20029;-71
2021/09/02 07:33:59;;;;;;;8.45;3.30;;;;;;;21.43;100.00;-19721.34;5020143;28;20041;-72
2021/09/02 07:36:25;;;;;;;6.10;2.70;;;;;;;23.76;100.00;-19780.59;5017713;28;20071;-72
2021/09/02 07:38:53;;;;;;;4.82;2.35;;;;;;;23.55;98.39;-19775.41;5007773;28;20083;-73
2021/09/02 07:41:19;;;;;;;5.57;2.20;;;;;;;22.96;100.00;-19760.25;5014358;28;20208;-73
2021/09/02 07:43:45;;;;;;;5.18;2.40;;;;;;;22.20;100.00;-19740.94;5016390;28;20120;-74
2021/09/02 07:46:11;;;;;;;6.88;2.20;;;;;;;21.24;100.00;-19716.41;5012662;28;20037;-73
2021/09/02 07:48:37;;;;;;;6.85;2.53;;;;;;;23.38;100.00;-19771.13;5018973;28;20021;-72
2021/09/02 07:51:03;;;;;;;5.63;2.38;;;;;;;21.77;100.00;-19729.91;5017639;28;20278;-72
2021/09/02 07:53:29;;;;;;;7.80;2.85;;;;;;;22.75;100.00;-19754.94;5020414;28;20186;-72
2021/09/02 07:55:56;;;;;;;7.50;2.28;;;;;;;22.81;98.88;-19756.50;5019566;28;20262;-72
2021/09/02 07:58:21;;;;;;;8.15;2.50;;;;;;;20.98;100.00;-19709.78;5017316;28;20040;-73
2021/09/02 08:00:48;;;;;;;5.82;2.50;;;;;;;22.18;100.00;-19740.56;5019967;28;20018;-72
2021/09/02 08:03:14;;;;;;;4.32;2.20;;;;;;;23.97;100.00;-19786.13;5019565;28;20413;-72
2021/09/02 08:05:39;;;;;;;5.88;2.08;;;;;;;24.27;92.85;-19793.63;5016949;28;20316;-72
2021/09/02 08:08:06;;;;;;;5.50;2.15;;;;;;;24.47;90.16;-19798.69;5006539;28;20026;-72
2021/09/02 08:10:32;;;;;;;6.78;1.98;;;;;;;25.15;89.20;-19816.00;5017162;28;20038;-72
2021/09/02 08:12:58;;;;;;;3.63;1.63;;;;;;;24.42;75.88;-19797.53;5018001;28;20053;-72
2021/09/02 08:15:25;;;;;;;4.10;1.63;;;;;;;23.26;86.81;-19767.88;5009197;28;20357;-73
2021/09/02 08:17:51;;;;;;;5.20;1.88;;;;;;;23.78;97.17;-19781.22;5020575;28;20036;-72
2021/09/02 08:20:18;;;;;;;5.68;2.10;;;;;;;23.90;84.99;-19784.34;5017142;28;20029;-73
2021/09/02 08:22:44;;;;;;;4.93;2.33;;;;;;;22.92;96.00;-19759.22;5010315;28;20083;-72
2021/09/02 08:25:11;;;;;;;6.45;2.60;;;;;;;22.83;98.69;-19756.88;5014726;28;20223;-73
2021/09/02 08:27:38;;;;;;;5.03;2.30;;;;;;;22.98;100.00;-19760.91;5019786;28;20033;-73
2021/09/02 08:30:06;;;;;;;7.05;2.08;;;;;;;23.26;95.79;-19768.03;5015719;28;20115;-73
2021/09/02 08:32:31;;;;;;;5.72;2.47;;;;;;;23.52;93.91;-19774.50;5020005;28;20194;-72
2021/09/02 08:34:57;;;;;;;7.65;2.70;;;;;;;24.60;90.86;-19801.91;5018973;28;20043;-73
2021/09/02 08:37:22;;;;;;;6.05;2.40;;;;;;;23.39;82.54;-19771.25;5017148;28;20267;-72
2021/09/02 08:39:48;;;;;;;7.75;2.47;;;;;;;21.71;100.00;-19728.50;5017672;28;20052;-71
2021/09/02 08:42:15;;;;;;;6.72;2.83;;;;;;;21.93;100.00;-19734.06;5017242;28;20397;-73
2021/09/02 08:44:42;;;;;;;5.72;2.47;;;;;;;24.15;95.61;-19790.66;5013488;28;20056;-73
2021/09/02 08:47:08;;;;;;;5.60;2.42;;;;;;;26.61;72.78;-19852.91;5003246;28;20021;-73
2021/09/02 08:49:34;;;;;;;6.82;2.05;;;;;;;26.16;71.26;-19841.53;5005151;28;20529;-73
2021/09/02 08:51:59;;;;;;;6.57;2.45;;;;;;;26.15;77.93;-19841.41;5018200;28;20021;-73
2021/09/02 08:54:25;;;;;;;6.40;2.40;;;;;;;25.01;80.99;-19812.50;5015681;28;20227;-74
2021/09/02 08:56:51;;;;;;;9.55;2.67;;;;;;;24.79;79.25;-19806.81;5016494;28;20032;-72
2021/09/02 08:59:16;;;;;;;9.63;2.65;;;;;;;21.46;96.09;-19722.13;5007048;28;20559;-71
2021/09/02 09:01:47;;;;;;;6.53;2.80;;;;;;;19.27;100.00;-19666.22;5019184;28;20029;-70
2021/09/02 09:04:13;;;;;;;6.93;2.85;;;;;;;19.86;100.00;-19681.31;5018994;28;20124;-69
2021/09/02 09:06:39;;;;;;;7.35;2.50;;;;;;;20.08;100.00;-19686.78;5010080;28;20574;-69
2021/09/02 09:09:14;;;;;;;8.38;3.00;;;;;;;20.86;100.00;-19706.69;5019600;28;20021;-70
2021/09/02 09:11:49;;;;;;;7.68;2.60;;;;;;;22.05;100.00;-19737.19;5007161;28;20033;-72
2021/09/02 09:14:19;;;;;;;9.55;2.53;;;;;;;22.62;92.91;-19751.69;5006954;28;20461;-73
2021/09/02 09:16:48;;;;;;;7.13;2.78;;;;;;;25.42;79.37;-19822.84;5017578;28;20029;-73
2021/09/02 09:19:41;;;;;;;5.60;2.20;;;;;;;27.32;66.13;-19871.06;5019106;28;20120;-72
2021/09/02 09:22:13;;;;;;;6.57;2.40;;;;;;;27.83;69.10;-19883.91;5013305;28;20592;-74
2021/09/02 09:24:50;;;;;;;9.65;2.33;;;;;;;26.92;70.60;-19860.88;5013913;28;20034;-73
2021/09/02 09:27:19;;;;;;;7.30;2.70;;;;;;;24.96;68.63;-19811.22;5008779;28;20036;-73
2021/09/02 09:29:44;;;;;;;6.28;3.08;;;;;;;24.45;75.09;-19798.28;5014341;28;20039;-74
2021/09/02 09:32:15;;;;;;;8.02;2.92;;;;;;;23.73;79.60;-19779.94;5015175;28;20021;-74
2021/09/02 09:34:48;;;;;;;7.07;2.90;;;;;;;21.33;96.08;-19718.75;5010162;28;20250;-72
2021/09/02 09:37:13;;;;;;;6.88;2.72;;;;;;;21.01;100.00;-19710.69;5013093;28;20026;-71
2021/09/02 09:39:39;;;;;;;7.68;3.20;;;;;;;20.03;100.00;-19685.47;5008045;28;20324;-70
2021/09/02 09:42:06;;;;;;;9.35;3.55;;;;;;;20.37;100.00;-19694.31;5017390;28;20021;-71
2021/09/02 09:44:32;;;;;;;11.27;3.58;;;;;;;20.47;100.00;-19696.94;5013844;28;20025;-72
2021/09/02 09:47:18;;;;;;;8.32;3.33;;;;;;;21.29;100.00;-19717.72;5000312;28;20029;-72
2021/09/02 09:49:52;;;;;;;8.88;3.25;;;;;;;21.70;100.00;-19728.09;5017447;28;20089;-70
2021/09/02 09:52:31;;;;;;;10.88;3.30;;;;;;;20.40;100.00;-19695.09;5013198;28;20298;-69
2021/09/02 09:55:13;;;;;;;8.05;3.33;;;;;;;19.48;100.00;-19671.44;5015344;28;20422;-69
2021/09/02 09:57:41;;;;;;;7.45;3.50;;;;;;;19.27;100.00;-19666.22;4999859;28;20026;-68
2021/09/02 10:00:18;;;;;;;8.18;3.55;;;;;;;19.28;100.00;-19666.47;5010991;28;20099;-69
2021/09/02 10:02:47;;;;;;;9.40;3.50;;;;;;;19.19;100.00;-19664.13;5005180;28;20025;-69
2021/09/02 10:05:14;;;;;;;7.60;3.13;;;;;;;19.87;100.00;-19681.59;5012091;28;20041;-69
2021/09/02 10:07:42;;;;;;;9.68;3.70;;;;;;;20.20;100.00;-19689.91;4999722;28;20107;-69
2021/09/02 10:10:10;;;;;;;10.52;3.28;;;;;;;19.70;100.00;-19677.16;5009889;28;20574;-69
2021/09/02 10:12:37;;;;;;;8.77;3.20;;;;;;;19.92;100.00;-19682.75;4999274;28;20190;-69
2021/09/02 10:15:13;;;;;;;10.40;3.50;;;;;;;20.42;100.00;-19695.63;5012446;28;20033;-70
2021/09/02 10:17:40;;;;;;;7.68;3.15;;;;;;;22.61;99.96;-19751.44;4999891;28;20199;-70
2021/09/02 10:20:39;;;;;;;8.02;2.88;;;;;;;24.23;80.79;-19792.59;5010948;28;20184;-69
2021/09/02 10:23:06;;;;;;;7.57;3.08;;;;;;;23.66;79.71;-19778.13;4985530;28;20037;-68
2021/09/02 10:25:38;;;;;;;8.68;3.50;;;;;;;21.43;97.28;-19721.34;5012113;28;20169;-68
2021/09/02 10:28:30;;;;;;;9.15;2.95;;;;;;;21.06;100.00;-19712.00;5018411;28;20025;-68
2021/09/02 10:30:59;;;;;;;10.88;3.75;;;;;;;22.08;96.97;-19737.97;5007217;28;20084;-68
2021/09/02 10:33:42;;;;;;;9.88;2.97;;;;;;;22.44;89.17;-19747.03;5018788;28;20025;-69
2021/09/02 10:36:40;;;;;;;6.65;3.05;;;;;;;24.46;76.92;-19798.56;5020576;28;20056;-69
2021/09/02 10:39:06;;;;;;;6.32;2.85;;;;;;;24.90;72.29;-19809.66;5018037;28;20087;-68
2021/09/02 10:41:50;;;;;;;10.68;3.58;;;;;;;23.69;80.77;-19778.91;5003467;28;20462;-69
2021/09/02 10:44:19;;;;;;;9.27;3.00;;;;;;;24.30;76.94;-19794.28;5016217;28;20112;-69
2021/09/02 10:46:53;;;;;;;9.57;3.05;;;;;;;25.72;74.97;-19830.34;5022145;28;20462;-68
2021/09/02 10:49:27;;;;;;;10.07;3.42;;;;;;;25.00;75.12;-19812.25;5015530;28;20259;-69
2021/09/02 10:52:04;;;;;;;7.25;3.15;;;;;;;25.12;74.71;-19815.22;5019790;28;20087;-69
2021/09/02 10:54:34;;;;;;;7.88;3.20;;;;;;;24.80;75.89;-19807.22;5018490;28;20029;-69
2021/09/02 10:57:06;;;;;;;8.18;3.33;;;;;;;23.75;84.62;-19780.44;5011317;28;20053;-68
2021/09/02 10:59:42;;;;;;;8.48;3.22;;;;;;;23.63;82.12;-19777.47;5015442;28;20104;-69
2021/09/02 11:02:10;;;;;;;9.48;3.40;;;;;;;23.03;85.75;-19762.19;5002916;28;20025;-68
2021/09/02 11:04:37;;;;;;;8.40;3.15;;;;;;;23.44;83.64;-19772.56;5015710;28;20073;-69
2021/09/02 11:07:03;;;;;;;9.15;3.60;;;;;;;22.19;91.71;-19740.81;5005445;28;20049;-69
2021/09/02 11:09:34;;;;;;;10.05;3.35;;;;;;;22.62;87.45;-19751.56;5011951;28;20819;-69
2021/09/02 11:12:01;;;;;;;9.25;3.85;;;;;;;22.25;91.63;-19742.09;5019467;28;20025;-69
2021/09/02 11:14:26;;;;;;;10.38;3.60;;;;;;;22.13;100.00;-19739.25;5025488;28;20044;-69